createdAt,value
2022-11-14T00:00:12.880Z,152.48
2022-11-14T00:02:43.345Z,156.02
2022-11-14T00:05:11.745Z,187.32
2022-11-14T00:07:39.823Z,266.40
2022-11-14T00:10:07.833Z,168.00
2022-11-14T00:12:34.839Z,163.75
2022-11-14T00:15:03.665Z,160.75
2022-11-14T00:17:33.006Z,184.52
2022-11-14T00:19:59.905Z,264.85
2022-11-14T00:22:28.440Z,233.90
2022-11-14T00:24:55.251Z,321.90
2022-11-14T00:27:23.310Z,167.88
2022-11-14T00:29:50.686Z,172.93
2022-11-14T00:32:25.668Z,183.32
2022-11-14T00:34:55.046Z,218.90
2022-11-14T00:37:29.553Z,164.80
2022-11-14T00:39:57.480Z,166.35
2022-11-14T00:42:24.327Z,168.43
2022-11-14T00:44:53.886Z,224.75
2022-11-14T00:47:24.786Z,208.82
2022-11-14T00:49:58.660Z,155.25
2022-11-14T00:52:26.016Z,165.80
2022-11-14T00:55:01.599Z,157.40
2022-11-14T00:57:31.518Z,177.60
2022-11-14T00:59:58.336Z,149.55
2022-11-14T01:02:25.613Z,173.20
2022-11-14T01:04:52.941Z,143.73
2022-11-14T01:07:20.272Z,195.35
2022-11-14T01:09:48.662Z,158.70
2022-11-14T01:12:16.952Z,186.23
2022-11-14T01:14:45.279Z,153.27
2022-11-14T01:17:12.705Z,143.07
2022-11-14T01:19:39.716Z,134.05
2022-11-14T01:22:07.122Z,127.78
2022-11-14T01:24:34.653Z,115.50
2022-11-14T01:27:03.913Z,147.80
2022-11-14T01:29:32.112Z,187.82
2022-11-14T01:31:59.569Z,124.05
2022-11-14T01:34:26.803Z,160.93
2022-11-14T01:36:54.208Z,144.98
2022-11-14T01:39:24.871Z,171.52
2022-11-14T01:41:54.798Z,119.88
2022-11-14T01:44:51.672Z,115.22
2022-11-14T01:47:25.609Z,148.60
2022-11-14T01:49:59.529Z,150.82
2022-11-14T01:52:36.042Z,201.40
2022-11-14T01:55:08.341Z,207.68
2022-11-14T01:57:39.984Z,174.82
2022-11-14T02:00:11.772Z,208.43
2022-11-14T02:02:41.606Z,187.40
2022-11-14T02:05:12.389Z,169.43
2022-11-14T02:07:40.777Z,247.55
2022-11-14T02:10:13.901Z,225.00
2022-11-14T02:12:41.298Z,249.20
2022-11-14T02:15:10.048Z,325.77
2022-11-14T02:17:37.752Z,307.42
2022-11-14T02:20:11.265Z,244.85
2022-11-14T02:22:41.018Z,223.45
2022-11-14T02:25:12.361Z,275.13
2022-11-14T02:27:42.328Z,237.88
2022-11-14T02:30:12.929Z,305.67
2022-11-14T02:33:08.723Z,215.57
2022-11-14T02:35:28.230Z,254.25
2022-11-14T02:37:55.607Z,262.25
2022-11-14T02:40:22.577Z,230.63
2022-11-14T02:42:49.705Z,226.65
2022-11-14T02:45:18.034Z,207.85
2022-11-14T02:47:44.822Z,256.75
2022-11-14T02:50:11.732Z,241.13
2022-11-14T02:52:39.256Z,246.02
2022-11-14T02:55:07.907Z,289.08
2022-11-14T02:57:35.476Z,270.35
2022-11-14T03:00:13.324Z,243.25
2022-11-14T03:02:42.087Z,269.17
2022-11-14T03:05:09.472Z,325.50
2022-11-14T03:07:40.916Z,289.15
2022-11-14T03:10:09.711Z,288.20
2022-11-14T03:12:37.571Z,386.27
2022-11-14T03:15:08.287Z,264.80
2022-11-14T03:17:36.086Z,297.77
2022-11-14T03:20:03.613Z,276.95
2022-11-14T03:22:33.160Z,303.85
2022-11-14T03:25:01.465Z,253.30
2022-11-14T03:27:31.000Z,272.60
2022-11-14T03:29:58.101Z,226.13
2022-11-14T03:32:25.460Z,298.63
2022-11-14T03:34:53.315Z,307.05
2022-11-14T03:37:21.660Z,241.27
2022-11-14T03:39:49.120Z,281.13
2022-11-14T03:42:16.212Z,251.15
2022-11-14T03:44:44.611Z,317.77
2022-11-14T03:47:11.356Z,312.02
2022-11-14T03:49:38.820Z,312.70
2022-11-14T03:52:05.747Z,304.02
2022-11-14T03:54:33.698Z,351.30
2022-11-14T03:57:01.526Z,270.58
2022-11-14T03:59:29.934Z,255.32
2022-11-14T04:01:57.214Z,289.20
2022-11-14T04:04:24.176Z,298.13
2022-11-14T04:07:32.237Z,277.10
2022-11-14T04:10:00.088Z,260.73
2022-11-14T04:12:28.442Z,271.63
2022-11-14T04:14:59.145Z,284.95
2022-11-14T04:17:29.017Z,251.82
2022-11-14T04:19:58.978Z,245.88
2022-11-14T04:22:26.277Z,261.85
2022-11-14T04:24:53.579Z,319.30
2022-11-14T04:27:20.352Z,263.75
2022-11-14T04:29:47.593Z,201.93
2022-11-14T04:32:18.805Z,223.82
2022-11-14T04:34:47.736Z,245.68
2022-11-14T04:37:14.882Z,187.68
2022-11-14T04:39:42.166Z,186.98
2022-11-14T04:42:08.994Z,192.02
2022-11-14T04:44:42.994Z,210.70
2022-11-14T04:47:11.068Z,182.55
2022-11-14T04:49:38.647Z,181.18
2022-11-14T04:52:07.052Z,177.82
2022-11-14T04:54:36.804Z,168.18
2022-11-14T04:57:04.192Z,173.27
2022-11-14T04:59:31.182Z,211.25
2022-11-14T05:02:07.151Z,218.48
2022-11-14T05:04:34.084Z,204.57
2022-11-14T05:07:01.395Z,225.80
2022-11-14T05:09:28.607Z,204.48
2022-11-14T05:11:57.986Z,235.48
2022-11-14T05:14:25.057Z,265.23
2022-11-14T05:16:52.806Z,272.77
2022-11-14T05:19:20.341Z,225.00
2022-11-14T05:21:54.437Z,218.45
2022-11-14T05:24:25.821Z,303.35
2022-11-14T05:26:55.594Z,321.63
2022-11-14T05:29:22.955Z,334.92
2022-11-14T05:31:51.672Z,348.98
2022-11-14T05:34:20.270Z,325.83
2022-11-14T05:36:47.189Z,355.95
2022-11-14T05:39:16.115Z,275.80
2022-11-14T05:41:43.015Z,281.92
2022-11-14T05:44:10.928Z,347.60
2022-11-14T05:46:41.103Z,296.83
2022-11-14T05:49:08.398Z,329.60
2022-11-14T05:51:36.110Z,290.52
2022-11-14T05:54:05.042Z,323.45
2022-11-14T05:56:31.863Z,294.13
2022-11-14T05:59:00.708Z,308.52
2022-11-14T06:01:28.782Z,247.38
2022-11-14T06:03:56.257Z,217.20
2022-11-14T06:06:23.434Z,157.63
2022-11-14T06:08:52.936Z,209.32
2022-11-14T06:11:21.894Z,192.35
2022-11-14T06:13:52.401Z,192.35
2022-11-14T06:16:23.048Z,205.38
2022-11-14T06:18:56.415Z,193.63
2022-11-14T06:21:28.182Z,189.88
2022-11-14T06:23:56.129Z,174.85
2022-11-14T06:26:26.310Z,179.05
2022-11-14T06:28:54.007Z,165.88
2022-11-14T06:31:22.300Z,174.95
2022-11-14T06:33:49.816Z,148.85
2022-11-14T06:36:17.346Z,167.48
2022-11-14T06:38:45.495Z,166.02
2022-11-14T06:41:18.846Z,182.13
2022-11-14T06:43:48.208Z,165.82
2022-11-14T06:46:18.535Z,190.82
2022-11-14T06:48:47.953Z,176.68
2022-11-14T06:51:17.872Z,167.23
2022-11-14T06:53:45.422Z,158.93
2022-11-14T06:56:20.912Z,146.50
2022-11-14T06:58:49.970Z,151.90
2022-11-14T07:01:20.045Z,151.57
2022-11-14T07:03:49.548Z,171.57
2022-11-14T07:06:27.044Z,151.18
2022-11-14T07:08:56.950Z,156.25
2022-11-14T07:11:30.069Z,157.45
2022-11-14T07:14:01.697Z,170.68
2022-11-14T07:16:37.929Z,163.43
2022-11-14T07:19:10.426Z,141.27
2022-11-14T07:21:42.853Z,172.57
2022-11-14T07:24:09.674Z,158.27
2022-11-14T07:26:46.401Z,149.05
2022-11-14T07:29:39.839Z,142.00
2022-11-14T07:32:10.564Z,137.35
2022-11-14T07:34:38.171Z,128.40
2022-11-14T07:37:05.397Z,160.65
2022-11-14T07:39:36.187Z,138.13
2022-11-14T07:42:30.662Z,135.50
2022-11-14T07:45:03.426Z,141.35
2022-11-14T07:47:40.796Z,128.35
2022-11-14T07:50:09.388Z,141.77
2022-11-14T07:52:37.773Z,156.25
2022-11-14T07:55:05.543Z,132.07
2022-11-14T07:57:43.914Z,127.80
2022-11-14T08:00:18.069Z,151.15
2022-11-14T08:02:48.009Z,112.85
2022-11-14T08:05:20.759Z,122.63
2022-11-14T08:07:52.865Z,134.55
2022-11-14T08:10:26.109Z,117.15
2022-11-14T08:16:13.927Z,129.05
2022-11-14T08:21:34.046Z,114.93
2022-11-14T08:26:49.080Z,97.45
2022-11-14T08:29:46.621Z,102.40
2022-11-14T08:32:16.728Z,117.05
2022-11-14T08:34:49.677Z,100.65
2022-11-14T08:37:19.758Z,85.13
2022-11-14T08:39:50.093Z,83.80
2022-11-14T08:42:17.777Z,100.03
2022-11-14T08:44:51.662Z,95.88
2022-11-14T08:47:23.944Z,91.13
2022-11-14T08:49:51.267Z,79.70
2022-11-14T08:52:23.289Z,76.22
2022-11-14T08:54:57.388Z,86.97
2022-11-14T08:57:28.071Z,83.90
2022-11-14T08:59:56.147Z,85.45
2022-11-14T09:02:23.856Z,93.57
2022-11-14T09:04:53.582Z,72.70
2022-11-14T09:07:22.256Z,79.93
2022-11-14T09:09:51.343Z,89.30
2022-11-14T09:12:25.536Z,88.53
2022-11-14T09:14:52.419Z,88.43
2022-11-14T09:17:19.674Z,82.07
2022-11-14T09:19:48.835Z,76.03
2022-11-14T09:22:17.059Z,80.03
2022-11-14T09:24:47.556Z,85.35
2022-11-14T09:27:15.126Z,78.55
2022-11-14T09:29:41.958Z,90.90
2022-11-14T09:32:10.115Z,83.70
2022-11-14T09:34:38.135Z,86.50
2022-11-14T09:37:05.763Z,74.82
2022-11-14T09:39:38.457Z,83.25
2022-11-14T09:42:23.827Z,85.75
2022-11-14T09:45:02.980Z,87.70
2022-11-14T09:47:33.270Z,77.38
2022-11-14T09:50:09.010Z,68.82
2022-11-14T09:52:46.299Z,63.75
2022-11-14T09:55:18.267Z,66.78
2022-11-14T09:57:54.163Z,63.30
2022-11-14T10:00:26.589Z,66.88
2022-11-14T10:03:14.468Z,55.67
2022-11-14T10:05:58.544Z,60.72
2022-11-14T10:09:03.021Z,77.75
2022-11-14T10:11:39.766Z,66.50
2022-11-14T10:14:44.556Z,60.85
2022-11-14T10:17:19.180Z,60.58
2022-11-14T10:20:23.450Z,57.60
2022-11-14T10:23:01.690Z,58.38
2022-11-14T10:25:44.279Z,53.50
2022-11-14T10:28:24.803Z,51.17
2022-11-14T10:31:36.327Z,51.72
2022-11-14T10:34:14.704Z,51.78
2022-11-14T10:37:06.127Z,51.13
2022-11-14T10:39:42.685Z,45.22
2022-11-14T10:42:43.007Z,50.00
2022-11-14T10:45:40.139Z,48.33
2022-11-14T10:48:15.997Z,56.47
2022-11-14T10:50:56.655Z,52.22
2022-11-14T10:53:47.716Z,47.92
2022-11-14T10:56:18.961Z,52.05
2022-11-14T10:58:49.587Z,56.17
2022-11-14T11:01:54.497Z,45.63
2022-11-14T11:04:34.432Z,45.95
2022-11-14T11:07:14.425Z,45.70
2022-11-14T11:09:59.788Z,42.33
2022-11-14T11:12:50.954Z,40.72
2022-11-14T11:15:22.379Z,49.20
2022-11-14T11:18:24.018Z,45.78
2022-11-14T11:21:10.464Z,43.42
2022-11-14T11:23:54.155Z,44.88
2022-11-14T11:26:25.596Z,45.75
2022-11-14T11:29:20.877Z,40.60
2022-11-14T11:31:48.550Z,42.72
2022-11-14T11:34:15.965Z,44.80
2022-11-14T11:36:53.934Z,44.78
2022-11-14T11:39:29.672Z,43.95
2022-11-14T11:42:09.412Z,38.78
2022-11-14T11:44:45.972Z,43.63
2022-11-14T11:47:17.478Z,38.33
2022-11-14T11:49:54.660Z,35.22
2022-11-14T11:52:38.544Z,48.47
2022-11-14T11:55:24.439Z,37.85
2022-11-14T11:58:13.937Z,40.58
2022-11-14T12:00:41.201Z,31.88
2022-11-14T12:03:20.190Z,43.03
2022-11-14T12:06:18.603Z,40.65
2022-11-14T12:09:22.635Z,34.97
2022-11-14T12:11:59.189Z,33.83
2022-11-14T12:14:58.359Z,32.30
2022-11-14T12:17:32.385Z,37.17
2022-11-14T12:20:21.449Z,31.55
2022-11-14T12:23:14.562Z,36.65
2022-11-14T12:26:09.381Z,32.80
2022-11-14T12:28:46.177Z,31.55
2022-11-14T12:31:17.263Z,33.92
2022-11-14T12:33:57.839Z,35.70
2022-11-14T12:36:35.024Z,35.80
2022-11-14T12:39:03.092Z,39.63
2022-11-14T12:41:37.141Z,32.13
2022-11-14T12:44:20.944Z,37.85
2022-11-14T12:47:06.615Z,29.95
2022-11-14T12:49:39.877Z,33.58
2022-11-14T12:52:46.427Z,32.33
2022-11-14T12:55:25.356Z,31.25
2022-11-14T12:58:12.287Z,31.90
2022-11-14T13:01:18.279Z,32.30
2022-11-14T13:04:09.755Z,35.28
2022-11-14T13:06:51.395Z,32.50
2022-11-14T13:09:24.472Z,33.83
2022-11-14T13:12:13.551Z,32.65
2022-11-14T13:15:15.895Z,33.50
2022-11-14T13:18:04.418Z,33.53
2022-11-14T13:21:03.663Z,41.17
2022-11-14T13:23:47.502Z,39.20
2022-11-14T13:26:15.206Z,32.95
2022-11-14T13:28:54.540Z,38.22
2022-11-14T13:31:36.737Z,34.13
2022-11-14T13:34:40.431Z,37.30
2022-11-14T13:37:23.443Z,33.55
2022-11-14T13:40:24.989Z,38.28
2022-11-14T13:43:34.186Z,37.80
2022-11-14T13:46:49.649Z,32.65
2022-11-14T13:49:49.501Z,32.05
2022-11-14T13:52:17.588Z,31.38
2022-11-14T13:54:52.515Z,40.78
2022-11-14T13:57:45.396Z,30.30
2022-11-14T14:00:21.614Z,32.60
2022-11-14T14:03:10.943Z,35.15
2022-11-14T14:06:12.722Z,31.23
2022-11-14T14:09:01.215Z,33.95
2022-11-14T14:11:50.931Z,42.72
2022-11-14T14:14:57.543Z,35.35
2022-11-14T14:18:09.047Z,38.40
2022-11-14T14:20:56.774Z,37.65
2022-11-14T14:23:36.564Z,35.85
2022-11-14T14:26:28.085Z,34.05
2022-11-14T14:29:21.844Z,47.55
2022-11-14T14:31:50.338Z,34.25
2022-11-14T14:34:32.643Z,36.55
2022-11-14T14:36:59.983Z,37.08
2022-11-14T14:39:33.233Z,38.17
2022-11-14T14:42:00.882Z,38.30
2022-11-14T14:44:49.182Z,35.53
2022-11-14T14:47:41.623Z,32.15
2022-11-14T14:50:26.742Z,40.17
2022-11-14T14:53:05.618Z,40.65
2022-11-14T14:55:36.380Z,37.60
2022-11-14T14:58:35.148Z,38.95
2022-11-14T15:04:06.214Z,39.50
2022-11-14T15:06:38.769Z,37.22
2022-11-14T15:09:21.145Z,36.35
2022-11-14T15:12:04.402Z,36.20
2022-11-14T15:14:40.266Z,37.20
2022-11-14T15:19:59.330Z,38.30
2022-11-14T15:22:37.745Z,38.83
2022-11-14T15:25:24.617Z,38.97
2022-11-14T15:28:13.029Z,44.80
2022-11-14T15:31:16.229Z,47.08
2022-11-14T15:33:47.407Z,45.22
2022-11-14T15:36:22.653Z,35.75
2022-11-14T15:39:42.827Z,42.80
2022-11-14T15:42:31.583Z,47.65
2022-11-14T15:45:10.173Z,36.78
2022-11-14T15:47:41.038Z,42.67
2022-11-14T15:50:17.248Z,32.10
2022-11-14T15:52:58.558Z,44.08
2022-11-14T15:55:26.683Z,40.60
2022-11-14T15:58:13.608Z,42.08
2022-11-14T16:00:51.345Z,46.38
2022-11-14T16:03:20.571Z,50.30
2022-11-14T16:05:56.115Z,42.67
2022-11-14T16:08:24.502Z,41.70
2022-11-14T16:10:51.603Z,39.60
2022-11-14T16:13:21.031Z,47.75
2022-11-14T16:15:56.015Z,38.85
2022-11-14T16:18:25.841Z,52.15
2022-11-14T16:20:53.053Z,47.83
2022-11-14T16:23:22.494Z,49.42
2022-11-14T16:25:51.379Z,50.45
2022-11-14T16:28:18.856Z,52.55
2022-11-14T16:30:48.204Z,54.72
2022-11-14T16:33:15.428Z,49.10
2022-11-14T16:35:42.830Z,51.97
2022-11-14T16:38:13.528Z,49.00
2022-11-14T16:40:47.512Z,49.05
2022-11-14T16:43:16.974Z,54.42
2022-11-14T16:45:44.354Z,54.15
2022-11-14T16:48:14.412Z,48.72
2022-11-14T16:50:42.819Z,51.70
2022-11-14T16:53:15.732Z,59.67
2022-11-14T16:55:47.087Z,53.85
2022-11-14T16:58:41.548Z,58.25
2022-11-14T17:04:05.515Z,54.00
2022-11-14T17:06:39.556Z,53.90
2022-11-14T17:09:25.930Z,50.30
2022-11-14T17:12:28.130Z,57.10
2022-11-14T17:17:57.595Z,51.42
2022-11-14T17:20:41.649Z,48.83
2022-11-14T17:26:43.316Z,50.70
2022-11-14T17:29:18.357Z,54.10
2022-11-14T17:32:06.714Z,50.30
2022-11-14T17:40:15.280Z,52.05
2022-11-14T17:42:50.146Z,49.97
2022-11-14T17:48:07.651Z,55.33
2022-11-14T17:58:55.745Z,50.55
2022-11-14T18:12:34.952Z,48.00
2022-11-14T18:20:48.561Z,49.85
2022-11-14T18:28:57.322Z,53.67
2022-11-14T18:34:37.356Z,54.60
2022-11-14T18:43:21.610Z,58.78
2022-11-14T18:48:37.884Z,61.67
2022-11-14T19:02:13.617Z,52.42
2022-11-14T19:04:48.322Z,61.80
2022-11-14T19:10:10.900Z,61.83
2022-11-14T19:12:44.888Z,53.35
2022-11-14T19:18:16.876Z,64.10
2022-11-14T19:20:47.963Z,65.20
2022-11-14T19:23:15.084Z,71.25
2022-11-14T19:25:43.632Z,60.38
2022-11-14T19:28:17.521Z,63.30
2022-11-14T19:30:46.158Z,58.38
2022-11-14T19:33:15.215Z,61.42
2022-11-14T19:35:42.471Z,58.08
2022-11-14T19:38:18.457Z,65.50
2022-11-14T19:40:51.771Z,60.08
2022-11-14T19:43:22.815Z,62.22
2022-11-14T19:45:55.896Z,57.10
2022-11-14T19:48:23.252Z,55.10
2022-11-14T19:51:09.943Z,65.57
2022-11-14T19:53:41.401Z,65.13
2022-11-14T19:56:14.021Z,64.88
2022-11-14T19:58:44.822Z,63.05
2022-11-14T20:01:19.756Z,68.50
2022-11-14T20:04:04.536Z,60.95
2022-11-14T20:06:35.952Z,69.60
2022-11-14T20:09:14.532Z,66.78
2022-11-14T20:11:43.841Z,63.42
2022-11-14T20:14:13.196Z,67.18
2022-11-14T20:16:49.830Z,71.47
2022-11-14T20:19:17.857Z,62.28
2022-11-14T20:21:47.184Z,74.75
2022-11-14T20:24:25.424Z,65.10
2022-11-14T20:26:56.820Z,68.28
2022-11-14T20:29:24.950Z,65.25
2022-11-14T20:31:53.251Z,62.47
2022-11-14T20:34:22.535Z,57.78
2022-11-14T20:39:40.485Z,64.53
2022-11-14T20:42:11.966Z,55.50
2022-11-14T20:44:40.821Z,56.03
2022-11-14T20:47:11.065Z,58.97
2022-11-14T20:49:39.086Z,62.67
2022-11-14T20:52:09.929Z,59.45
2022-11-14T20:54:38.406Z,55.78
2022-11-14T20:57:06.984Z,61.97
2022-11-14T20:59:37.836Z,67.65
2022-11-14T21:02:05.965Z,60.30
2022-11-14T21:04:36.390Z,61.72
2022-11-14T21:07:09.037Z,60.13
2022-11-14T21:09:40.192Z,61.67
2022-11-14T21:12:09.517Z,58.50
2022-11-14T21:14:36.999Z,61.15
2022-11-14T21:17:07.605Z,57.00
2022-11-14T21:19:37.247Z,65.35
2022-11-14T21:22:04.888Z,65.00
2022-11-14T21:24:39.974Z,64.60
2022-11-14T21:27:09.449Z,66.40
2022-11-14T21:29:40.113Z,65.43
2022-11-14T21:32:09.682Z,64.28
2022-11-14T21:34:36.590Z,60.97
2022-11-14T21:37:21.771Z,61.80
2022-11-14T21:39:50.778Z,80.78
2022-11-14T21:42:20.733Z,61.53
2022-11-14T21:44:49.928Z,63.63
2022-11-14T21:47:20.905Z,64.93
2022-11-14T21:49:48.326Z,64.15
2022-11-14T21:55:02.701Z,61.47
2022-11-14T21:57:29.507Z,78.95
2022-11-14T21:59:57.015Z,69.70
2022-11-14T22:02:43.243Z,83.45
2022-11-14T22:05:15.725Z,79.45
2022-11-14T22:07:43.124Z,74.20
2022-11-14T22:10:12.215Z,74.88
2022-11-14T22:12:42.534Z,68.15
2022-11-14T22:17:57.162Z,87.50
2022-11-14T22:20:25.568Z,79.13
2022-11-14T22:22:56.143Z,86.18
2022-11-14T22:25:25.184Z,79.00
2022-11-14T22:27:56.615Z,102.00
2022-11-14T22:33:05.886Z,76.03
2022-11-14T22:35:38.939Z,95.35
2022-11-14T22:38:13.583Z,89.40
2022-11-14T22:40:43.296Z,88.72
2022-11-14T22:43:11.093Z,89.68
2022-11-14T22:45:41.354Z,98.85
2022-11-14T22:48:10.902Z,94.32
2022-11-14T22:50:40.129Z,91.32
2022-11-14T22:53:09.174Z,89.47
2022-11-14T22:55:37.799Z,100.32
2022-11-14T22:58:11.998Z,92.25
2022-11-14T23:00:51.050Z,103.95
2022-11-14T23:03:36.303Z,110.03
2022-11-14T23:06:42.334Z,103.80
2022-11-14T23:09:26.050Z,108.80
2022-11-14T23:11:55.280Z,102.05
2022-11-14T23:14:27.523Z,101.88
2022-11-14T23:17:02.459Z,88.75
2022-11-14T23:19:33.735Z,104.35
2022-11-14T23:22:01.284Z,103.53
2022-11-14T23:24:29.610Z,109.55
2022-11-14T23:26:56.921Z,112.18
2022-11-14T23:29:25.306Z,96.13
2022-11-14T23:32:04.729Z,93.53
2022-11-14T23:34:36.859Z,89.80
2022-11-14T23:37:04.893Z,111.75
2022-11-14T23:39:32.077Z,92.18
2022-11-14T23:41:58.911Z,99.85
2022-11-14T23:44:26.888Z,101.38
2022-11-14T23:46:56.448Z,96.13
2022-11-14T23:49:25.132Z,98.90
2022-11-14T23:52:00.561Z,109.50
2022-11-14T23:54:29.627Z,90.63
2022-11-14T23:57:00.046Z,91.43
2022-11-14T23:59:31.658Z,88.80
